Wheatland, Indiana
Current Conditions -  °F | °C
As of 1:35 AM on Monday 22 Dec 2014 (Local Time) from KDCY Reporting Station
Overcast Overcast  
Wind Chill: 27°   Ceiling: 10000
Heat Index: 32°   Visibility: 7mi
Dew Point: 28°   Wind: 5mph
Humidity: 87%   Direction: 130°SE
Pressure: 29.99"   Gusts: NA
Location:  38.66°N, 87.31°W
Report Text: KDCY 220735Z AUTO 13004KT 7SM OVC100 00/M02 A2999 RMK AO2 T10021022
Loading
Personal Weather Stations






























Interactive Weather Map New forecast layout! Learn more

10-Day Weather Forecast

Advertisements
Track Severe Weather on mobile